Time;durP1;ratioP1;P1;durP2;ratioP2;P2;SDS_P1;SDS_P2;PMS_P1;PMS_P2;Temp;Humidity;BMP_temperature;BMP_pressure;BME280_temperature;BME280_humidity;BME280_pressure;Samples;Min_cycle;Max_cycle;Signal;HPM_P1;HPM_P2
2022/04/01 00:02:11;;;;;;;21.35;13.35;;;;;;;0.33;100.00;99897.06;4952042;28;20054;-77
2022/04/01 00:04:37;;;;;;;24.20;13.35;;;;;;;0.31;100.00;99907.06;4967351;28;20059;-77
2022/04/01 00:07:03;;;;;;;18.63;9.02;;;;;;;0.29;100.00;99900.88;4969149;28;20031;-77
2022/04/01 00:09:28;;;;;;;23.90;13.70;;;;;;;0.25;100.00;99903.81;4966112;28;20667;-77
2022/04/01 00:11:53;;;;;;;16.63;9.98;;;;;;;0.36;100.00;99912.19;4971908;28;20052;-76
2022/04/01 00:14:19;;;;;;;26.85;13.90;;;;;;;0.28;100.00;99909.03;4972233;28;20066;-77
2022/04/01 00:16:44;;;;;;;26.15;14.63;;;;;;;0.32;100.00;99914.16;4964864;28;20093;-77
2022/04/01 00:19:12;;;;;;;20.35;11.25;;;;;;;0.35;100.00;99915.84;4967900;28;20043;-76
2022/04/01 00:21:38;;;;;;;22.33;12.48;;;;;;;0.29;100.00;99917.03;4962133;28;20071;-77
2022/04/01 00:24:04;;;;;;;15.68;9.60;;;;;;;0.38;100.00;99915.69;4961683;28;20092;-77
2022/04/01 00:26:30;;;;;;;20.33;11.70;;;;;;;0.21;100.00;99919.22;4976781;28;20046;-76
2022/04/01 00:28:55;;;;;;;16.08;10.23;;;;;;;0.29;100.00;99921.53;4973171;28;20494;-76
2022/04/01 00:31:21;;;;;;;17.95;10.18;;;;;;;0.24;100.00;99916.38;4949072;28;20125;-77
2022/04/01 00:33:47;;;;;;;14.48;8.70;;;;;;;0.28;100.00;99915.28;4957738;28;20038;-76
2022/04/01 00:36:12;;;;;;;12.95;7.82;;;;;;;0.30;100.00;99917.91;4977902;28;20035;-77
2022/04/01 00:38:37;;;;;;;13.93;9.32;;;;;;;0.27;100.00;99929.69;4983875;28;20041;-77
2022/04/01 00:41:03;;;;;;;12.10;8.48;;;;;;;0.22;100.00;99915.59;4963759;28;20035;-76
2022/04/01 00:43:30;;;;;;;14.52;9.00;;;;;;;0.21;100.00;99915.69;4979448;28;20391;-75
2022/04/01 00:45:57;;;;;;;10.15;6.88;;;;;;;0.25;100.00;99928.06;4987715;28;20041;-75
2022/04/01 00:48:23;;;;;;;18.13;8.18;;;;;;;0.16;100.00;99927.56;4964748;28;20398;-76
2022/04/01 00:50:49;;;;;;;14.90;7.85;;;;;;;0.21;100.00;99918.38;4981358;28;20030;-76
2022/04/01 00:53:17;;;;;;;17.42;8.13;;;;;;;0.15;100.00;99923.13;4965271;28;20065;-76
2022/04/01 00:55:43;;;;;;;15.27;9.48;;;;;;;0.16;100.00;99937.44;4963552;28;20035;-76
2022/04/01 00:58:09;;;;;;;18.52;9.38;;;;;;;0.14;100.00;99933.97;4952402;28;20043;-77
2022/04/01 01:00:36;;;;;;;14.35;9.35;;;;;;;0.12;100.00;99935.88;4953801;28;20031;-76
2022/04/01 01:03:07;;;;;;;15.20;9.07;;;;;;;0.06;100.00;99928.09;4981074;28;20110;-77
2022/04/01 01:05:32;;;;;;;17.50;10.95;;;;;;;0.11;100.00;99931.44;4986359;28;20033;-76
2022/04/01 01:07:58;;;;;;;21.75;11.70;;;;;;;0.11;100.00;99942.19;4966933;28;20035;-76
2022/04/01 01:10:25;;;;;;;20.90;9.90;;;;;;;0.11;100.00;99936.81;4950626;28;20034;-78
2022/04/01 01:12:51;;;;;;;14.70;9.38;;;;;;;0.18;100.00;99936.44;4986512;28;20050;-76
2022/04/01 01:15:18;;;;;;;18.38;11.68;;;;;;;0.13;100.00;99934.91;4971077;28;20035;-76
2022/04/01 01:17:45;;;;;;;20.33;10.32;;;;;;;0.17;100.00;99933.81;4974785;28;20045;-76
2022/04/01 01:20:17;;;;;;;16.38;10.35;;;;;;;0.11;100.00;99939.50;4981254;28;20338;-76
2022/04/01 01:22:47;;;;;;;16.10;9.75;;;;;;;0.13;100.00;99926.84;4955920;28;20500;-77
2022/04/01 01:25:13;;;;;;;24.75;10.23;;;;;;;0.11;100.00;99936.81;4979338;28;20474;-76
2022/04/01 01:27:39;;;;;;;23.75;9.20;;;;;;;0.18;100.00;99933.75;4957337;28;20055;-77
2022/04/01 01:30:07;;;;;;;16.30;9.38;;;;;;;0.10;100.00;99932.38;4963494;28;20026;-77
2022/04/01 01:32:34;;;;;;;19.48;10.35;;;;;;;0.13;100.00;99937.59;4965629;28;20078;-76
2022/04/01 01:35:02;;;;;;;15.23;8.68;;;;;;;0.11;100.00;99928.75;4970719;28;20039;-77
2022/04/01 01:37:28;;;;;;;15.88;9.00;;;;;;;0.13;100.00;99937.59;4960354;28;20402;-76
2022/04/01 01:39:54;;;;;;;16.50;8.77;;;;;;;0.14;100.00;99933.97;4971988;28;20436;-76
2022/04/01 01:42:19;;;;;;;18.10;9.15;;;;;;;0.09;100.00;99942.28;4964629;28;20038;-76
2022/04/01 01:44:45;;;;;;;15.15;9.50;;;;;;;0.08;100.00;99940.56;4958387;28;20070;-76
2022/04/01 01:47:11;;;;;;;24.13;10.80;;;;;;;0.06;100.00;99937.03;4968930;28;20031;-76
2022/04/01 01:49:36;;;;;;;15.38;7.00;;;;;;;0.10;100.00;99949.41;4961902;28;20039;-77
2022/04/01 01:54:50;;;;;;;13.70;8.55;;;;;;;0.13;100.00;99942.97;4967484;28;20042;-77
2022/04/01 01:57:21;;;;;;;21.52;9.40;;;;;;;0.16;100.00;99950.91;4957923;29;20049;-77
2022/04/01 01:59:47;;;;;;;16.95;9.00;;;;;;;0.10;100.00;99946.72;4975112;28;20039;-76
2022/04/01 02:02:13;;;;;;;17.20;9.40;;;;;;;0.12;100.00;99944.81;4984653;28;20027;-76
2022/04/01 02:04:40;;;;;;;12.93;8.32;;;;;;;0.14;100.00;99955.50;4962507;28;20034;-76
2022/04/01 02:07:06;;;;;;;8.32;5.97;;;;;;;0.18;100.00;99962.44;4961888;28;20035;-76
2022/04/01 02:09:32;;;;;;;15.98;8.90;;;;;;;0.13;100.00;99956.44;4961045;28;20126;-76
2022/04/01 02:11:58;;;;;;;13.57;7.75;;;;;;;0.16;100.00;99957.19;4951248;29;20499;-76
2022/04/01 02:14:24;;;;;;;11.77;7.63;;;;;;;0.17;100.00;99960.72;4955468;28;20043;-76
2022/04/01 02:16:49;;;;;;;13.70;9.40;;;;;;;0.12;100.00;99957.41;4971820;28;20364;-76
2022/04/01 02:19:21;;;;;;;13.50;8.68;;;;;;;0.19;100.00;99964.22;4962825;28;20136;-76
2022/04/01 02:21:54;;;;;;;12.35;7.40;;;;;;;0.23;100.00;99978.38;4971633;28;20055;-76
2022/04/01 02:24:21;;;;;;;12.70;7.90;;;;;;;0.18;100.00;99971.44;4969607;28;20502;-76
2022/04/01 02:26:47;;;;;;;13.02;8.30;;;;;;;0.21;100.00;99972.22;4978103;28;20082;-75
2022/04/01 02:29:19;;;;;;;13.25;8.00;;;;;;;0.17;100.00;99969.66;4960673;28;20022;-76
2022/04/01 02:31:45;;;;;;;13.50;7.53;;;;;;;0.14;100.00;99972.50;4984811;28;20108;-76
2022/04/01 02:34:10;;;;;;;17.02;8.38;;;;;;;0.15;100.00;99976.97;4982471;28;20033;-76
2022/04/01 02:36:38;;;;;;;11.52;7.80;;;;;;;0.18;100.00;99984.88;4994082;28;20030;-75
2022/04/01 02:39:05;;;;;;;14.10;8.02;;;;;;;0.16;100.00;99981.41;4973560;28;20031;-76
2022/04/01 02:41:32;;;;;;;10.45;6.22;;;;;;;0.24;100.00;99986.38;4954191;28;20414;-76
2022/04/01 02:44:08;;;;;;;12.18;7.75;;;;;;;0.17;100.00;99984.97;4971102;28;20046;-76
2022/04/01 02:46:38;;;;;;;18.98;8.63;;;;;;;0.21;100.00;99982.97;4970983;28;20050;-76
2022/04/01 02:49:06;;;;;;;17.42;7.97;;;;;;;0.12;100.00;99976.25;4959145;28;20027;-76
2022/04/01 02:51:37;;;;;;;11.98;8.18;;;;;;;0.17;100.00;99993.88;4971759;28;20073;-76
2022/04/01 02:54:04;;;;;;;11.10;7.32;;;;;;;0.28;100.00;99996.06;4985696;28;20030;-76
2022/04/01 02:56:32;;;;;;;9.45;6.53;;;;;;;0.27;100.00;100004.22;4987761;28;20045;-75
2022/04/01 02:58:59;;;;;;;13.85;8.50;;;;;;;0.18;100.00;99997.44;4968835;28;20157;-76
2022/04/01 03:01:25;;;;;;;11.43;7.15;;;;;;;0.18;100.00;99998.34;4974155;28;20121;-76
2022/04/01 03:03:50;;;;;;;12.48;8.43;;;;;;;0.08;100.00;99999.75;4973399;28;20763;-76
2022/04/01 03:06:16;;;;;;;14.57;7.82;;;;;;;0.22;100.00;100004.44;4987193;28;20126;-76
2022/04/01 03:08:45;;;;;;;12.57;7.75;;;;;;;0.12;100.00;99997.78;4974871;28;20046;-76
2022/04/01 03:11:11;;;;;;;12.85;8.15;;;;;;;0.32;100.00;100010.22;4966047;28;20050;-76
2022/04/01 03:13:37;;;;;;;12.30;8.02;;;;;;;0.15;100.00;100016.47;4967276;28;20059;-76
2022/04/01 03:16:02;;;;;;;13.10;7.45;;;;;;;0.14;100.00;100010.19;4971624;28;20186;-77
2022/04/01 03:18:28;;;;;;;14.98;8.35;;;;;;;0.18;100.00;100018.97;4979924;28;20034;-76
2022/04/01 03:20:53;;;;;;;14.68;8.25;;;;;;;0.18;100.00;100021.66;4969539;28;20104;-76
2022/04/01 03:23:19;;;;;;;16.40;9.45;;;;;;;0.17;100.00;100026.19;4990052;28;20033;-76
2022/04/01 03:25:45;;;;;;;12.65;7.50;;;;;;;0.22;100.00;100031.34;4974981;28;20038;-76
2022/04/01 03:28:11;;;;;;;13.68;9.27;;;;;;;0.22;100.00;100035.88;4966319;28;20050;-76
2022/04/01 03:30:37;;;;;;;15.63;10.25;;;;;;;0.22;100.00;100042.13;4956357;28;21483;-76
2022/04/01 03:33:03;;;;;;;14.35;8.27;;;;;;;0.22;100.00;100043.94;4987026;28;20061;-77
2022/04/01 03:35:29;;;;;;;17.35;9.25;;;;;;;0.16;100.00;100053.19;4986756;28;20034;-77
2022/04/01 03:37:55;;;;;;;12.80;8.40;;;;;;;0.26;100.00;100045.53;4988385;28;20042;-77
2022/04/01 03:40:21;;;;;;;14.48;8.85;;;;;;;0.24;100.00;100048.28;4986822;28;20083;-77
2022/04/01 03:42:51;;;;;;;19.08;10.27;;;;;;;0.16;100.00;100054.06;4969846;28;20023;-77
2022/04/01 03:45:17;;;;;;;14.20;8.25;;;;;;;0.17;100.00;100055.81;4992516;28;20026;-77
2022/04/01 03:47:59;;;;;;;15.60;8.90;;;;;;;0.17;100.00;100045.03;4981790;28;20463;-77
2022/04/01 03:50:32;;;;;;;14.73;8.07;;;;;;;0.32;100.00;100059.56;4971847;28;20041;-77
2022/04/01 03:53:06;;;;;;;12.63;8.63;;;;;;;0.17;100.00;100055.81;4968055;28;20089;-77
2022/04/01 03:55:34;;;;;;;17.48;9.13;;;;;;;0.23;100.00;100054.66;4987774;28;20034;-77
2022/04/01 03:58:07;;;;;;;14.13;9.43;;;;;;;0.21;100.00;100063.72;4968990;28;21580;-77
2022/04/01 04:00:33;;;;;;;11.10;6.95;;;;;;;0.33;100.00;100055.91;4951016;28;20026;-77
2022/04/01 04:02:59;;;;;;;14.70;7.72;;;;;;;0.27;100.00;100063.44;4986145;28;20386;-77
2022/04/01 04:05:27;;;;;;;14.63;9.10;;;;;;;0.26;100.00;100075.13;4981542;28;20064;-77
2022/04/01 04:07:55;;;;;;;15.68;9.77;;;;;;;0.21;100.00;100061.03;4989017;28;20038;-77
2022/04/01 04:10:21;;;;;;;13.10;8.05;;;;;;;0.27;100.00;100074.19;4959027;28;20034;-77
2022/04/01 04:12:48;;;;;;;12.15;7.93;;;;;;;0.29;100.00;100081.22;4987457;28;20125;-77
2022/04/01 04:15:14;;;;;;;17.90;9.73;;;;;;;0.28;100.00;100084.00;4965642;28;20176;-77
2022/04/01 04:17:45;;;;;;;10.85;7.20;;;;;;;0.24;100.00;100083.28;4968337;28;20098;-77
2022/04/01 04:20:18;;;;;;;10.05;6.68;;;;;;;0.30;100.00;100088.38;4966140;28;20043;-76
2022/04/01 04:23:10;;;;;;;12.80;7.43;;;;;;;0.26;100.00;100086.75;4977086;28;20038;-76
2022/04/01 04:25:38;;;;;;;13.13;8.30;;;;;;;0.20;100.00;100095.16;4989917;28;20513;-76
2022/04/01 04:28:16;;;;;;;11.32;7.47;;;;;;;0.27;100.00;100093.03;4981121;28;20406;-76
2022/04/01 04:30:54;;;;;;;12.27;7.90;;;;;;;0.21;100.00;100104.97;4992701;28;20170;-76
2022/04/01 04:33:23;;;;;;;14.45;9.32;;;;;;;0.21;100.00;100114.88;4983440;28;20479;-77
2022/04/01 04:35:50;;;;;;;15.07;8.68;;;;;;;0.29;100.00;100113.53;4984540;28;20558;-77
2022/04/01 04:38:16;;;;;;;16.20;9.15;;;;;;;0.30;100.00;100118.00;4993818;28;20069;-76
2022/04/01 04:40:42;;;;;;;17.40;7.57;;;;;;;0.31;100.00;100118.84;4969859;28;20027;-76
2022/04/01 04:43:08;;;;;;;14.32;8.43;;;;;;;0.21;100.00;100125.63;4971931;28;20042;-77
2022/04/01 04:45:34;;;;;;;13.98;8.20;;;;;;;0.24;100.00;100120.97;4969087;28;20034;-77
2022/04/01 04:48:03;;;;;;;14.40;8.07;;;;;;;0.31;100.00;100130.50;4971328;28;20112;-77
2022/04/01 04:50:28;;;;;;;14.15;7.65;;;;;;;0.23;100.00;100127.31;4968531;28;20467;-78
2022/04/01 04:52:55;;;;;;;10.43;7.20;;;;;;;0.20;100.00;100126.56;4972881;28;20037;-77
2022/04/01 04:55:22;;;;;;;11.18;7.82;;;;;;;0.28;100.00;100136.03;4966624;28;20374;-77
2022/04/01 04:57:50;;;;;;;9.32;6.85;;;;;;;0.23;100.00;100132.72;4956311;28;20038;-77
2022/04/01 05:00:20;;;;;;;10.73;6.45;;;;;;;0.28;100.00;100151.31;4977038;28;20382;-77
2022/04/01 05:03:06;;;;;;;10.17;5.33;;;;;;;0.27;100.00;100149.56;4985501;28;20030;-77
2022/04/01 05:05:53;;;;;;;6.25;4.82;;;;;;;0.24;100.00;100155.09;4954555;28;20473;-77
2022/04/01 05:08:51;;;;;;;9.52;5.03;;;;;;;0.16;100.00;100167.13;4972762;28;20031;-77
2022/04/01 05:11:23;;;;;;;8.05;5.78;;;;;;;0.19;100.00;100179.53;4942460;28;20502;-77
2022/04/01 05:13:55;;;;;;;13.75;7.82;;;;;;;0.21;100.00;100185.72;4969797;28;20070;-76
2022/04/01 05:16:48;;;;;;;7.88;5.43;;;;;;;0.23;100.00;100185.66;4983394;28;20034;-77
2022/04/01 05:19:23;;;;;;;10.23;7.05;;;;;;;0.14;100.00;100174.38;4966012;28;20128;-77
2022/04/01 05:22:03;;;;;;;10.73;6.50;;;;;;;0.14;100.00;100198.59;4989710;28;20033;-77
2022/04/01 05:24:39;;;;;;;8.35;5.25;;;;;;;0.19;100.00;100206.47;4983848;28;20469;-77
2022/04/01 05:27:20;;;;;;;9.00;5.28;;;;;;;0.12;100.00;100195.09;4979828;28;20105;-79
2022/04/01 05:29:49;;;;;;;11.43;5.88;;;;;;;0.17;100.00;100205.66;4978942;28;20031;-77
2022/04/01 05:32:19;;;;;;;10.35;6.97;;;;;;;0.14;100.00;100203.97;4949606;28;21630;-77
2022/04/01 05:34:46;;;;;;;8.13;5.20;;;;;;;0.22;100.00;100208.16;4968173;28;20034;-77
2022/04/01 05:37:13;;;;;;;8.40;6.72;;;;;;;0.16;100.00;100212.88;4979724;28;20463;-77
2022/04/01 05:39:40;;;;;;;10.65;6.97;;;;;;;0.13;100.00;100217.50;4964206;28;20037;-77
2022/04/01 05:42:07;;;;;;;13.20;8.02;;;;;;;0.13;100.00;100223.78;4967947;28;20509;-77
2022/04/01 05:44:34;;;;;;;10.93;7.32;;;;;;;0.17;100.00;100225.38;4988773;28;20038;-77
2022/04/01 05:47:02;;;;;;;14.30;7.40;;;;;;;0.16;100.00;100226.34;4985870;28;20041;-77
2022/04/01 05:49:28;;;;;;;11.15;7.05;;;;;;;0.16;100.00;100226.34;4981719;28;20041;-77
2022/04/01 05:51:54;;;;;;;14.00;9.07;;;;;;;0.13;100.00;100225.59;4968977;28;20105;-77
2022/04/01 05:54:22;;;;;;;9.80;6.38;;;;;;;0.13;100.00;100230.97;4979263;28;20761;-77
2022/04/01 05:56:49;;;;;;;15.15;9.20;;;;;;;0.15;100.00;100232.66;4950059;28;20046;-77
2022/04/01 05:59:16;;;;;;;17.55;9.10;;;;;;;0.10;100.00;100250.84;4986802;28;20148;-77
2022/04/01 06:02:00;;;;;;;20.92;8.25;;;;;;;0.10;100.00;100255.31;4969518;28;20042;-77
2022/04/01 06:05:06;;;;;;;15.15;9.15;;;;;;;0.16;100.00;100250.56;4971614;28;20065;-77
2022/04/01 06:07:36;;;;;;;18.05;9.60;;;;;;;0.24;100.00;100255.56;4938600;28;20107;-77
2022/04/01 06:10:09;;;;;;;18.92;9.45;;;;;;;0.20;100.00;100263.84;4957669;28;20129;-77
2022/04/01 06:12:59;;;;;;;17.45;10.63;;;;;;;0.11;100.00;100271.41;4971737;28;20031;-77
2022/04/01 06:15:35;;;;;;;15.32;9.50;;;;;;;0.12;100.00;100264.22;4972420;28;20078;-77
2022/04/01 06:18:08;;;;;;;13.15;7.32;;;;;;;0.18;100.00;100285.44;4960558;28;20037;-77
2022/04/01 06:20:37;;;;;;;16.02;8.32;;;;;;;0.12;100.00;100280.38;4963158;28;20048;-77
2022/04/01 06:23:18;;;;;;;14.18;8.40;;;;;;;0.15;100.00;100282.94;4980674;28;20054;-77
2022/04/01 06:25:54;;;;;;;13.32;7.93;;;;;;;0.13;100.00;100295.56;4966531;28;20430;-77
2022/04/01 06:28:26;;;;;;;15.65;7.53;;;;;;;0.18;100.00;100302.50;4969596;28;20395;-76
2022/04/01 06:30:55;;;;;;;18.55;9.90;;;;;;;0.15;100.00;100309.84;4988876;28;20034;-77
2022/04/01 06:33:37;;;;;;;11.07;8.00;;;;;;;0.16;100.00;100316.97;4985653;28;20141;-76
2022/04/01 06:36:05;;;;;;;15.88;9.23;;;;;;;0.20;100.00;100312.31;4986799;28;20037;-76
2022/04/01 06:38:53;;;;;;;15.93;9.05;;;;;;;0.16;100.00;100320.53;4972793;28;20042;-76
2022/04/01 06:41:20;;;;;;;14.00;8.02;;;;;;;0.21;100.00;100320.31;4986129;28;20044;-77
2022/04/01 06:43:47;;;;;;;14.32;9.25;;;;;;;0.16;100.00;100319.66;4993608;28;20022;-78
2022/04/01 06:46:13;;;;;;;16.50;8.57;;;;;;;0.24;100.00;100330.09;4990195;28;20533;-77
2022/04/01 06:48:40;;;;;;;15.70;9.27;;;;;;;0.14;100.00;100326.94;4969307;28;20034;-77
2022/04/01 06:51:08;;;;;;;13.93;7.80;;;;;;;0.17;100.00;100343.81;4990742;28;20463;-77
2022/04/01 06:53:36;;;;;;;17.00;9.00;;;;;;;0.22;100.00;100340.06;4971845;28;20078;-76
2022/04/01 06:56:03;;;;;;;15.18;9.57;;;;;;;0.29;100.00;100346.91;4993381;28;20548;-77
2022/04/01 06:58:30;;;;;;;12.70;7.63;;;;;;;0.19;100.00;100351.81;4957791;28;20027;-78
2022/04/01 07:01:16;;;;;;;13.90;8.32;;;;;;;0.13;100.00;100344.91;4993607;28;20034;-77
2022/04/01 07:03:42;;;;;;;17.90;8.50;;;;;;;0.26;100.00;100358.66;4965379;28;20502;-77
2022/04/01 07:06:07;;;;;;;16.92;9.02;;;;;;;0.13;100.00;100352.97;4953959;28;20033;-78
2022/04/01 07:08:33;;;;;;;13.15;7.15;;;;;;;0.22;100.00;100349.00;4974666;28;20046;-76
2022/04/01 07:10:58;;;;;;;14.32;9.32;;;;;;;0.26;100.00;100366.75;4990598;28;20034;-78
2022/04/01 07:13:24;;;;;;;15.63;8.45;;;;;;;0.26;100.00;100361.34;4992840;28;20037;-78
2022/04/01 07:15:50;;;;;;;11.65;7.00;;;;;;;0.14;100.00;100359.22;4983458;28;20062;-78
2022/04/01 07:18:18;;;;;;;14.90;6.75;;;;;;;0.15;100.00;100371.75;4986747;28;20084;-78
2022/04/01 07:20:44;;;;;;;14.88;7.43;;;;;;;0.20;100.00;100366.13;4987165;28;20042;-78
2022/04/01 07:23:09;;;;;;;14.77;8.48;;;;;;;0.18;100.00;100371.59;4968272;28;20031;-78
2022/04/01 07:25:34;;;;;;;11.95;7.35;;;;;;;0.18;100.00;100377.88;4980087;28;20027;-80
2022/04/01 07:28:00;;;;;;;12.70;7.25;;;;;;;0.30;100.00;100380.97;4962126;28;20107;-78
2022/04/01 07:30:26;;;;;;;12.80;7.55;;;;;;;0.23;100.00;100388.44;4998065;28;20042;-79
2022/04/01 07:32:55;;;;;;;10.57;6.78;;;;;;;0.30;100.00;100392.59;4979534;28;20113;-78
2022/04/01 07:35:20;;;;;;;13.07;7.93;;;;;;;0.25;100.00;100389.25;4990394;28;20122;-79
2022/04/01 07:37:46;;;;;;;15.40;8.02;;;;;;;0.16;100.00;100382.47;4967184;28;20470;-79
2022/04/01 07:40:13;;;;;;;10.32;7.05;;;;;;;0.18;100.00;100394.03;4989949;28;20049;-79
2022/04/01 07:42:39;;;;;;;14.10;7.45;;;;;;;0.24;100.00;100400.06;4990402;28;20169;-79
2022/04/01 07:45:06;;;;;;;12.68;7.10;;;;;;;0.28;100.00;100396.28;4963127;28;21401;-78
2022/04/01 07:47:33;;;;;;;10.10;6.90;;;;;;;0.25;100.00;100401.84;4954003;28;20031;-78
2022/04/01 07:50:00;;;;;;;12.23;7.00;;;;;;;0.36;100.00;100410.28;4981995;28;20030;-78
2022/04/01 07:52:27;;;;;;;13.88;6.30;;;;;;;0.39;100.00;100406.59;4985396;28;20031;-78
2022/04/01 07:54:53;;;;;;;10.32;6.43;;;;;;;0.29;100.00;100422.28;4973692;28;20066;-78
2022/04/01 07:57:19;;;;;;;9.65;4.85;;;;;;;0.34;100.00;100410.38;4993261;28;20034;-78
2022/04/01 07:59:46;;;;;;;6.57;4.20;;;;;;;0.44;100.00;100424.28;4985102;28;20034;-79
2022/04/01 08:02:13;;;;;;;11.93;7.07;;;;;;;0.39;100.00;100422.75;4986804;28;20170;-79
2022/04/01 08:04:39;;;;;;;13.65;6.40;;;;;;;0.28;100.00;100429.50;4995044;28;20448;-78
2022/04/01 08:07:05;;;;;;;8.65;4.85;;;;;;;0.37;100.00;100428.22;4986523;28;20041;-78
2022/04/01 08:09:33;;;;;;;12.75;6.35;;;;;;;0.39;100.00;100434.41;4984001;28;20034;-78
2022/04/01 08:11:59;;;;;;;8.77;5.57;;;;;;;0.34;100.00;100431.94;4978363;28;20120;-78
2022/04/01 08:14:24;;;;;;;15.52;6.38;;;;;;;0.30;100.00;100437.50;4967135;28;20455;-78
2022/04/01 08:16:49;;;;;;;8.93;5.57;;;;;;;0.40;100.00;100440.69;4976018;28;20038;-79
2022/04/01 08:19:15;;;;;;;9.07;5.85;;;;;;;0.27;100.00;100445.72;4981084;28;20038;-79
2022/04/01 08:21:44;;;;;;;10.15;5.93;;;;;;;0.41;100.00;100447.78;4953780;28;20125;-78
2022/04/01 08:24:10;;;;;;;10.50;4.95;;;;;;;0.46;100.00;100451.16;4973429;28;20065;-78
2022/04/01 08:26:35;;;;;;;14.48;6.10;;;;;;;0.27;100.00;100449.28;4967712;28;20055;-79
2022/04/01 08:29:02;;;;;;;7.07;5.68;;;;;;;0.36;100.00;100462.34;4974889;28;20034;-78
2022/04/01 08:31:30;;;;;;;14.85;6.15;;;;;;;0.32;100.00;100465.22;4979178;28;20049;-78
2022/04/01 08:33:57;;;;;;;9.20;5.22;;;;;;;0.41;100.00;100474.72;4973523;28;20043;-79
2022/04/01 08:36:24;;;;;;;11.30;5.88;;;;;;;0.34;100.00;100468.72;4952996;28;20479;-77
2022/04/01 08:38:50;;;;;;;6.80;4.45;;;;;;;0.45;100.00;100482.59;4984656;28;20041;-79
2022/04/01 08:41:17;;;;;;;9.88;5.90;;;;;;;0.46;100.00;100487.06;4953746;28;20486;-78
2022/04/01 08:43:45;;;;;;;18.67;6.05;;;;;;;0.36;100.00;100488.38;4968120;28;20031;-78
2022/04/01 08:46:12;;;;;;;10.27;5.95;;;;;;;0.52;100.00;100496.69;4960120;28;20109;-77
2022/04/01 08:48:37;;;;;;;11.77;5.68;;;;;;;0.40;100.00;100497.22;4959384;28;20034;-78
2022/04/01 08:51:03;;;;;;;9.45;5.68;;;;;;;0.39;100.00;100495.47;4977609;28;20034;-78
2022/04/01 08:53:33;;;;;;;7.80;5.25;;;;;;;0.46;100.00;100505.91;4978246;28;20091;-77
2022/04/01 08:55:58;;;;;;;9.23;5.28;;;;;;;0.54;100.00;100505.56;4978987;28;20042;-78
2022/04/01 08:58:25;;;;;;;12.00;5.78;;;;;;;0.46;100.00;100505.91;4971789;28;20046;-78
2022/04/01 09:00:51;;;;;;;8.27;5.18;;;;;;;0.49;100.00;100513.88;4971534;28;20666;-78
2022/04/01 09:03:20;;;;;;;9.60;5.85;;;;;;;0.45;100.00;100522.13;4965602;28;20038;-78
2022/04/01 09:05:53;;;;;;;11.57;5.18;;;;;;;0.44;100.00;100520.38;4970005;28;20034;-78
2022/04/01 09:08:25;;;;;;;8.68;5.47;;;;;;;0.43;100.00;100526.72;4969716;28;20031;-78
2022/04/01 09:11:01;;;;;;;9.75;5.78;;;;;;;0.53;100.00;100528.06;4983111;28;20374;-78
2022/04/01 09:13:32;;;;;;;11.50;5.22;;;;;;;0.49;100.00;100524.63;4961173;28;20133;-78
2022/04/01 09:15:59;;;;;;;11.30;5.38;;;;;;;0.43;100.00;100532.97;4951953;28;20039;-78
2022/04/01 09:18:44;;;;;;;7.90;5.20;;;;;;;0.43;100.00;100535.66;4978969;28;20050;-80
2022/04/01 09:21:12;;;;;;;6.50;4.40;;;;;;;0.48;100.00;100535.47;4968453;28;20045;-80
2022/04/01 09:23:40;;;;;;;7.13;4.85;;;;;;;0.64;100.00;100546.44;4998438;28;20022;-78
2022/04/01 09:26:06;;;;;;;7.60;4.00;;;;;;;0.60;100.00;100536.75;4978830;28;20034;-78
2022/04/01 09:28:38;;;;;;;9.68;3.28;;;;;;;0.62;100.00;100543.81;4987827;28;20385;-78
2022/04/01 09:31:10;;;;;;;6.38;3.22;;;;;;;0.69;100.00;100557.94;4992494;28;20082;-78
2022/04/01 09:33:42;;;;;;;9.05;4.55;;;;;;;0.68;100.00;100556.16;4967977;28;20023;-78
2022/04/01 09:36:09;;;;;;;10.85;3.72;;;;;;;0.54;100.00;100536.09;4975325;28;20161;-77
2022/04/01 09:38:36;;;;;;;4.75;2.92;;;;;;;0.81;100.00;100551.13;4974608;28;20034;-77
2022/04/01 09:41:08;;;;;;;7.00;3.90;;;;;;;0.62;100.00;100545.66;4953780;28;20041;-78
2022/04/01 09:43:41;;;;;;;9.05;3.92;;;;;;;0.72;100.00;100561.38;4958426;28;20121;-78
2022/04/01 09:46:24;;;;;;;7.40;3.83;;;;;;;0.88;100.00;100566.94;4954167;28;20043;-78
2022/04/01 09:48:49;;;;;;;3.88;2.63;;;;;;;0.69;100.00;100557.94;4971193;28;20035;-77
2022/04/01 09:51:15;;;;;;;4.95;3.10;;;;;;;0.90;100.00;100570.47;4951176;28;20042;-77
2022/04/01 09:53:53;;;;;;;5.65;3.65;;;;;;;0.81;100.00;100568.16;4964526;28;20523;-78
2022/04/01 09:56:34;;;;;;;6.50;3.08;;;;;;;0.71;100.00;100556.91;4974430;28;20879;-78
2022/04/01 09:59:00;;;;;;;7.45;3.72;;;;;;;0.82;100.00;100567.22;4962012;28;20374;-78
2022/04/01 10:01:25;;;;;;;10.27;4.28;;;;;;;0.73;100.00;100562.22;4953273;28;20034;-79
2022/04/01 10:03:51;;;;;;;9.88;4.03;;;;;;;0.88;100.00;100572.31;4978478;28;20085;-77
2022/04/01 10:06:17;;;;;;;6.30;4.20;;;;;;;0.80;100.00;100576.31;4959019;28;20042;-78
2022/04/01 10:08:43;;;;;;;12.18;4.15;;;;;;;0.72;100.00;100560.47;4964391;28;20038;-78
2022/04/01 10:11:10;;;;;;;6.38;4.13;;;;;;;0.91;100.00;100574.03;4987743;28;20386;-77
2022/04/01 10:13:36;;;;;;;8.63;4.53;;;;;;;0.94;100.00;100570.34;4960416;28;20031;-77
2022/04/01 10:16:07;;;;;;;8.55;4.43;;;;;;;0.79;100.00;100561.97;4974578;28;20485;-78
2022/04/01 10:18:33;;;;;;;5.55;3.78;;;;;;;0.82;100.00;100567.22;4962912;28;20030;-78
2022/04/01 10:21:01;;;;;;;10.77;6.00;;;;;;;1.00;100.00;100568.25;4963992;28;20505;-78
2022/04/01 10:23:27;;;;;;;7.50;4.30;;;;;;;0.95;100.00;100585.53;4979080;28;20035;-78
2022/04/01 10:26:14;;;;;;;7.07;4.07;;;;;;;1.01;100.00;100578.06;4987990;28;20040;-78
2022/04/01 10:28:44;;;;;;;9.65;4.53;;;;;;;1.00;100.00;100586.22;4978410;28;20047;-78
2022/04/01 10:31:14;;;;;;;12.98;4.43;;;;;;;1.13;100.00;100578.47;4981527;28;20030;-78
2022/04/01 10:33:39;;;;;;;6.25;4.13;;;;;;;1.12;100.00;100580.28;4998126;28;20486;-78
2022/04/01 10:36:21;;;;;;;8.32;4.00;;;;;;;1.21;100.00;100587.09;4971914;28;20026;-77
2022/04/01 10:38:51;;;;;;;7.10;4.32;;;;;;;0.97;100.00;100581.84;4976954;28;20038;-77
2022/04/01 10:41:18;;;;;;;11.30;4.88;;;;;;;1.14;100.00;100581.09;4970140;28;20479;-78
2022/04/01 10:43:45;;;;;;;7.45;4.93;;;;;;;1.16;100.00;100584.59;4981975;28;20031;-77
2022/04/01 10:46:16;;;;;;;9.52;4.88;;;;;;;1.35;100.00;100586.47;4968858;28;20045;-77
2022/04/01 10:52:05;;;;;;;7.87;4.43;;;;;;;1.28;100.00;100592.16;4991661;28;20109;-79
2022/04/01 10:54:31;;;;;;;11.57;4.38;;;;;;;1.28;100.00;100592.16;4947050;28;20497;-76
2022/04/01 10:57:01;;;;;;;8.30;5.00;;;;;;;1.12;100.00;100592.91;4977074;28;20486;-77
2022/04/01 10:59:27;;;;;;;5.63;3.85;;;;;;;1.42;100.00;100596.91;4967407;28;20038;-77
2022/04/01 11:01:53;;;;;;;10.02;4.45;;;;;;;1.39;100.00;100599.72;4978732;28;20094;-78
2022/04/01 11:04:18;;;;;;;7.38;4.80;;;;;;;1.50;100.00;100610.06;4953779;28;20423;-77
2022/04/01 11:06:57;;;;;;;7.50;4.68;;;;;;;1.34;100.00;100600.91;4960500;28;20061;-77
2022/04/01 11:09:55;;;;;;;8.95;4.57;;;;;;;1.42;100.00;100612.22;4981224;28;20058;-77
2022/04/01 11:12:21;;;;;;;10.27;5.38;;;;;;;1.26;100.00;100612.03;4986442;28;20440;-78
2022/04/01 11:15:17;;;;;;;8.60;4.25;;;;;;;1.41;100.00;100615.84;4990978;28;20034;-80
2022/04/01 11:17:45;;;;;;;8.10;4.22;;;;;;;1.44;100.00;100613.03;4990274;28;20038;-79
2022/04/01 11:20:13;;;;;;;8.73;4.30;;;;;;;1.28;100.00;100610.16;4987635;28;20120;-79
2022/04/01 11:22:46;;;;;;;8.20;4.80;;;;;;;1.40;100.00;100615.00;4957796;28;20019;-79
2022/04/01 11:25:33;;;;;;;8.63;4.45;;;;;;;1.33;100.00;100620.72;4980024;28;20046;-80
2022/04/01 11:28:06;;;;;;;8.40;4.88;;;;;;;1.23;100.00;100610.34;4970099;28;20055;-78
2022/04/01 11:30:55;;;;;;;;;;;;;;;1.44;100.00;100629.22;4971178;28;20042;-78
2022/04/01 11:33:22;;;;;;;9.50;4.32;;;;;;;1.34;100.00;100627.88;4963042;28;19914;-78
2022/04/01 11:35:53;;;;;;;8.23;4.53;;;;;;;1.26;100.00;100614.72;4970347;28;20035;-79
2022/04/01 11:38:24;;;;;;;7.20;4.43;;;;;;;1.19;100.00;100616.81;4967252;28;20035;-78